DK-0035 weather

├ślgod Airfield
Vallund, South Denmark, Denmark

Public forecast

Using degrees Celsius for public forecast. Weather courtesy of forecast.io.

METAR (pilot weather report)

Closest report is Stauning Airport, 11.5 nm (21.4 km) NW. Retrieved 2019/07/18 12:50 UTC (1 hour ago):

EKVJ 181250Z 23011KT 9999 SCT030 BKN180 21/16 Q1011

TAF (pilot weather forecast)

Forecast is more than 12 hours old.

Closest forecast is Esbjerg Airport, 18.5 nm (34.2 km) S. Retrieved 2015/09/18 18:00 UTC (4 years ago):

TAF EKEB 181707Z 1818/1822 24008KT 9999 SCT025 TEMPO 1818/1820 -SHRA SCT020CB